sensor_id;sensor_type;location;lat;lon;timestamp;temperature;humidity
54788;DHT22;59598;48.112;16.280;2023-04-09T00:02:00;4.40;99.90
54788;DHT22;59598;48.112;16.280;2023-04-09T00:04:38;4.30;99.90
54788;DHT22;59598;48.112;16.280;2023-04-09T00:07:16;4.30;99.90
54788;DHT22;59598;48.112;16.280;2023-04-09T00:09:50;4.30;99.90
54788;DHT22;59598;48.112;16.280;2023-04-09T00:12:24;4.30;99.90
54788;DHT22;59598;48.112;16.280;2023-04-09T00:14:56;4.30;99.90
54788;DHT22;59598;48.112;16.280;2023-04-09T00:17:27;4.20;99.90
54788;DHT22;59598;48.112;16.280;2023-04-09T00:19:59;4.20;99.90
54788;DHT22;59598;48.112;16.280;2023-04-09T00:22:31;4.20;99.90
54788;DHT22;59598;48.112;16.280;2023-04-09T00:25:05;4.20;99.90
54788;DHT22;59598;48.112;16.280;2023-04-09T00:27:39;4.20;99.90
54788;DHT22;59598;48.112;16.280;2023-04-09T00:30:13;4.10;99.90
54788;DHT22;59598;48.112;16.280;2023-04-09T00:32:48;4.10;99.90
54788;DHT22;59598;48.112;16.280;2023-04-09T00:35:20;4.10;99.90
54788;DHT22;59598;48.112;16.280;2023-04-09T00:37:53;4.10;99.90
54788;DHT22;59598;48.112;16.280;2023-04-09T00:40:27;4.10;99.90
54788;DHT22;59598;48.112;16.280;2023-04-09T00:43:03;4.10;99.90
54788;DHT22;59598;48.112;16.280;2023-04-09T00:45:37;4.10;99.90
54788;DHT22;59598;48.112;16.280;2023-04-09T00:48:14;4.00;99.90
54788;DHT22;59598;48.112;16.280;2023-04-09T00:50:47;4.10;99.90
54788;DHT22;59598;48.112;16.280;2023-04-09T00:53:19;4.10;99.90
54788;DHT22;59598;48.112;16.280;2023-04-09T00:55:52;4.10;99.90
54788;DHT22;59598;48.112;16.280;2023-04-09T00:58:27;4.00;99.90
54788;DHT22;59598;48.112;16.280;2023-04-09T01:01:01;4.00;99.90
54788;DHT22;59598;48.112;16.280;2023-04-09T01:03:32;4.00;99.90
54788;DHT22;59598;48.112;16.280;2023-04-09T01:09:46;3.90;99.90
54788;DHT22;59598;48.112;16.280;2023-04-09T01:15:11;3.80;99.90
54788;DHT22;59598;48.112;16.280;2023-04-09T01:17:51;3.80;99.90
54788;DHT22;59598;48.112;16.280;2023-04-09T01:23:24;3.70;99.90
54788;DHT22;59598;48.112;16.280;2023-04-09T01:29:07;3.70;99.90
54788;DHT22;59598;48.112;16.280;2023-04-09T01:31:42;3.60;99.90
54788;DHT22;59598;48.112;16.280;2023-04-09T01:34:17;3.70;99.90
54788;DHT22;59598;48.112;16.280;2023-04-09T01:36:55;3.60;99.90
54788;DHT22;59598;48.112;16.280;2023-04-09T01:39:30;3.70;99.90
54788;DHT22;59598;48.112;16.280;2023-04-09T01:42:04;3.60;99.90
54788;DHT22;59598;48.112;16.280;2023-04-09T01:44:42;3.60;99.90
54788;DHT22;59598;48.112;16.280;2023-04-09T01:47:15;3.60;99.90
54788;DHT22;59598;48.112;16.280;2023-04-09T01:49:51;3.60;99.90
54788;DHT22;59598;48.112;16.280;2023-04-09T01:52:27;3.60;99.90
54788;DHT22;59598;48.112;16.280;2023-04-09T01:54:59;3.60;99.90
54788;DHT22;59598;48.112;16.280;2023-04-09T01:57:32;3.60;99.90
54788;DHT22;59598;48.112;16.280;2023-04-09T02:00:06;3.60;99.90
54788;DHT22;59598;48.112;16.280;2023-04-09T02:05:45;3.60;99.90
54788;DHT22;59598;48.112;16.280;2023-04-09T02:08:23;3.60;99.90
54788;DHT22;59598;48.112;16.280;2023-04-09T02:11:02;3.60;99.90
54788;DHT22;59598;48.112;16.280;2023-04-09T02:13:34;3.60;99.90
54788;DHT22;59598;48.112;16.280;2023-04-09T02:16:12;3.50;99.90
54788;DHT22;59598;48.112;16.280;2023-04-09T02:18:46;3.50;99.90
54788;DHT22;59598;48.112;16.280;2023-04-09T02:21:17;3.60;99.90
54788;DHT22;59598;48.112;16.280;2023-04-09T02:23:49;3.60;99.90
54788;DHT22;59598;48.112;16.280;2023-04-09T02:26:23;3.60;99.90
54788;DHT22;59598;48.112;16.280;2023-04-09T02:28:57;3.60;99.90
54788;DHT22;59598;48.112;16.280;2023-04-09T02:31:32;3.50;99.90
54788;DHT22;59598;48.112;16.280;2023-04-09T02:34:05;3.60;99.90
54788;DHT22;59598;48.112;16.280;2023-04-09T02:36:37;3.50;99.90
54788;DHT22;59598;48.112;16.280;2023-04-09T02:39:08;3.60;99.90
54788;DHT22;59598;48.112;16.280;2023-04-09T02:41:43;3.60;99.90
54788;DHT22;59598;48.112;16.280;2023-04-09T02:44:16;3.60;99.90
54788;DHT22;59598;48.112;16.280;2023-04-09T02:46:50;3.50;99.90
54788;DHT22;59598;48.112;16.280;2023-04-09T02:49:23;3.50;99.90
54788;DHT22;59598;48.112;16.280;2023-04-09T02:51:56;3.40;99.90
54788;DHT22;59598;48.112;16.280;2023-04-09T02:54:27;3.30;99.90
54788;DHT22;59598;48.112;16.280;2023-04-09T02:56:58;3.20;99.90
54788;DHT22;59598;48.112;16.280;2023-04-09T02:59:32;3.20;99.90
54788;DHT22;59598;48.112;16.280;2023-04-09T03:02:13;3.20;99.90
54788;DHT22;59598;48.112;16.280;2023-04-09T03:04:47;3.30;99.90
54788;DHT22;59598;48.112;16.280;2023-04-09T03:07:18;3.30;99.90
54788;DHT22;59598;48.112;16.280;2023-04-09T03:09:53;3.30;99.90
54788;DHT22;59598;48.112;16.280;2023-04-09T03:12:30;3.30;99.90
54788;DHT22;59598;48.112;16.280;2023-04-09T03:15:02;3.30;99.90
54788;DHT22;59598;48.112;16.280;2023-04-09T03:17:34;3.40;99.90
54788;DHT22;59598;48.112;16.280;2023-04-09T03:20:08;3.40;99.90
54788;DHT22;59598;48.112;16.280;2023-04-09T03:22:39;3.40;99.90
54788;DHT22;59598;48.112;16.280;2023-04-09T03:25:11;3.50;99.90
54788;DHT22;59598;48.112;16.280;2023-04-09T03:27:43;3.50;99.90
54788;DHT22;59598;48.112;16.280;2023-04-09T03:30:17;3.50;99.90
54788;DHT22;59598;48.112;16.280;2023-04-09T03:32:48;3.50;99.90
54788;DHT22;59598;48.112;16.280;2023-04-09T03:35:21;3.50;99.90
54788;DHT22;59598;48.112;16.280;2023-04-09T03:37:55;3.50;99.90
54788;DHT22;59598;48.112;16.280;2023-04-09T03:40:31;3.50;99.90
54788;DHT22;59598;48.112;16.280;2023-04-09T03:43:06;3.50;99.90
54788;DHT22;59598;48.112;16.280;2023-04-09T03:45:37;3.60;99.90
54788;DHT22;59598;48.112;16.280;2023-04-09T03:48:10;3.50;99.90
54788;DHT22;59598;48.112;16.280;2023-04-09T03:50:44;3.60;99.90
54788;DHT22;59598;48.112;16.280;2023-04-09T03:53:15;3.50;99.90
54788;DHT22;59598;48.112;16.280;2023-04-09T03:55:49;3.50;99.90
54788;DHT22;59598;48.112;16.280;2023-04-09T03:58:25;3.50;99.90
54788;DHT22;59598;48.112;16.280;2023-04-09T04:01:00;3.50;99.90
54788;DHT22;59598;48.112;16.280;2023-04-09T04:03:37;3.40;99.90
54788;DHT22;59598;48.112;16.280;2023-04-09T04:06:08;3.40;99.90
54788;DHT22;59598;48.112;16.280;2023-04-09T04:08:44;3.50;99.90
54788;DHT22;59598;48.112;16.280;2023-04-09T04:11:18;3.50;99.90
54788;DHT22;59598;48.112;16.280;2023-04-09T04:13:49;3.50;99.90
54788;DHT22;59598;48.112;16.280;2023-04-09T04:16:20;3.60;99.90
54788;DHT22;59598;48.112;16.280;2023-04-09T04:18:52;3.60;99.90
54788;DHT22;59598;48.112;16.280;2023-04-09T04:21:24;3.60;99.90
54788;DHT22;59598;48.112;16.280;2023-04-09T04:23:55;3.70;99.90
54788;DHT22;59598;48.112;16.280;2023-04-09T04:26:32;3.70;99.90
54788;DHT22;59598;48.112;16.280;2023-04-09T04:29:06;3.70;99.90
54788;DHT22;59598;48.112;16.280;2023-04-09T04:31:37;3.80;99.90
54788;DHT22;59598;48.112;16.280;2023-04-09T04:34:11;3.80;99.90
54788;DHT22;59598;48.112;16.280;2023-04-09T04:36:43;3.80;99.90
54788;DHT22;59598;48.112;16.280;2023-04-09T04:39:16;3.80;99.90
54788;DHT22;59598;48.112;16.280;2023-04-09T04:41:53;3.90;99.90
54788;DHT22;59598;48.112;16.280;2023-04-09T04:44:24;3.90;99.90
54788;DHT22;59598;48.112;16.280;2023-04-09T04:47:01;4.00;99.90
54788;DHT22;59598;48.112;16.280;2023-04-09T04:49:34;4.00;99.90
54788;DHT22;59598;48.112;16.280;2023-04-09T04:52:09;4.00;99.90
54788;DHT22;59598;48.112;16.280;2023-04-09T04:54:42;4.10;99.90
54788;DHT22;59598;48.112;16.280;2023-04-09T04:57:14;4.10;99.90
54788;DHT22;59598;48.112;16.280;2023-04-09T04:59:47;4.10;99.90
54788;DHT22;59598;48.112;16.280;2023-04-09T05:02:18;4.20;99.90
54788;DHT22;59598;48.112;16.280;2023-04-09T05:04:49;4.20;99.90
54788;DHT22;59598;48.112;16.280;2023-04-09T05:07:25;4.20;99.90
54788;DHT22;59598;48.112;16.280;2023-04-09T05:10:01;4.30;99.90
54788;DHT22;59598;48.112;16.280;2023-04-09T05:12:38;4.30;99.90
54788;DHT22;59598;48.112;16.280;2023-04-09T05:15:09;4.30;99.90
54788;DHT22;59598;48.112;16.280;2023-04-09T05:17:42;4.30;99.90
54788;DHT22;59598;48.112;16.280;2023-04-09T05:20:21;4.30;99.90
54788;DHT22;59598;48.112;16.280;2023-04-09T05:22:55;4.30;99.90
54788;DHT22;59598;48.112;16.280;2023-04-09T05:25:26;4.40;99.90
54788;DHT22;59598;48.112;16.280;2023-04-09T05:28:02;4.40;99.90
54788;DHT22;59598;48.112;16.280;2023-04-09T05:30:35;4.40;99.90
54788;DHT22;59598;48.112;16.280;2023-04-09T05:33:06;4.40;99.90
54788;DHT22;59598;48.112;16.280;2023-04-09T05:35:40;4.40;99.90
54788;DHT22;59598;48.112;16.280;2023-04-09T05:38:16;4.50;99.90
54788;DHT22;59598;48.112;16.280;2023-04-09T05:40:50;4.50;99.90
54788;DHT22;59598;48.112;16.280;2023-04-09T05:43:24;4.50;99.90
54788;DHT22;59598;48.112;16.280;2023-04-09T05:45:55;4.50;99.90
54788;DHT22;59598;48.112;16.280;2023-04-09T05:48:33;4.60;99.90
54788;DHT22;59598;48.112;16.280;2023-04-09T05:51:12;4.70;99.90
54788;DHT22;59598;48.112;16.280;2023-04-09T05:53:45;4.70;99.90
54788;DHT22;59598;48.112;16.280;2023-04-09T05:56:19;4.70;99.90
54788;DHT22;59598;48.112;16.280;2023-04-09T05:58:53;4.80;99.90
54788;DHT22;59598;48.112;16.280;2023-04-09T06:01:24;4.90;99.90
54788;DHT22;59598;48.112;16.280;2023-04-09T06:04:00;4.90;99.90
54788;DHT22;59598;48.112;16.280;2023-04-09T06:06:31;4.90;99.90
54788;DHT22;59598;48.112;16.280;2023-04-09T06:09:03;5.00;99.90
54788;DHT22;59598;48.112;16.280;2023-04-09T06:11:36;5.00;99.90
54788;DHT22;59598;48.112;16.280;2023-04-09T06:14:10;5.10;99.90
54788;DHT22;59598;48.112;16.280;2023-04-09T06:16:47;5.30;99.90
54788;DHT22;59598;48.112;16.280;2023-04-09T06:19:23;5.50;99.90
54788;DHT22;59598;48.112;16.280;2023-04-09T06:21:59;5.60;99.90
54788;DHT22;59598;48.112;16.280;2023-04-09T06:24:38;5.80;99.90
54788;DHT22;59598;48.112;16.280;2023-04-09T06:27:12;5.90;99.90
54788;DHT22;59598;48.112;16.280;2023-04-09T06:29:45;5.90;99.90
54788;DHT22;59598;48.112;16.280;2023-04-09T06:32:17;5.90;99.90
54788;DHT22;59598;48.112;16.280;2023-04-09T06:34:48;6.00;99.90
54788;DHT22;59598;48.112;16.280;2023-04-09T06:37:20;6.10;99.90
54788;DHT22;59598;48.112;16.280;2023-04-09T06:39:52;6.30;99.90
54788;DHT22;59598;48.112;16.280;2023-04-09T06:42:25;6.30;99.90
54788;DHT22;59598;48.112;16.280;2023-04-09T06:44:59;6.30;99.90
54788;DHT22;59598;48.112;16.280;2023-04-09T06:47:39;6.40;99.90
54788;DHT22;59598;48.112;16.280;2023-04-09T06:50:15;6.50;99.90
54788;DHT22;59598;48.112;16.280;2023-04-09T06:52:51;6.60;99.90
54788;DHT22;59598;48.112;16.280;2023-04-09T06:55:22;6.50;99.90
54788;DHT22;59598;48.112;16.280;2023-04-09T06:57:56;6.20;99.90
54788;DHT22;59598;48.112;16.280;2023-04-09T07:00:27;6.30;99.90
54788;DHT22;59598;48.112;16.280;2023-04-09T07:02:59;6.40;99.90
54788;DHT22;59598;48.112;16.280;2023-04-09T07:05:31;6.50;99.90
54788;DHT22;59598;48.112;16.280;2023-04-09T07:08:03;6.60;99.90
54788;DHT22;59598;48.112;16.280;2023-04-09T07:10:35;6.60;99.90
54788;DHT22;59598;48.112;16.280;2023-04-09T07:13:12;6.40;99.90
54788;DHT22;59598;48.112;16.280;2023-04-09T07:15:48;6.40;99.90
54788;DHT22;59598;48.112;16.280;2023-04-09T07:18:22;6.30;99.90
54788;DHT22;59598;48.112;16.280;2023-04-09T07:20:56;6.30;99.90
54788;DHT22;59598;48.112;16.280;2023-04-09T07:23:27;6.40;99.90
54788;DHT22;59598;48.112;16.280;2023-04-09T07:26:01;6.60;99.90
54788;DHT22;59598;48.112;16.280;2023-04-09T07:28:52;6.90;99.90
54788;DHT22;59598;48.112;16.280;2023-04-09T07:31:26;6.90;99.90
54788;DHT22;59598;48.112;16.280;2023-04-09T07:34:00;7.30;99.90
54788;DHT22;59598;48.112;16.280;2023-04-09T07:36:31;7.50;99.90
54788;DHT22;59598;48.112;16.280;2023-04-09T07:39:06;7.40;99.90
54788;DHT22;59598;48.112;16.280;2023-04-09T07:41:39;7.60;99.90
54788;DHT22;59598;48.112;16.280;2023-04-09T07:44:12;7.70;99.90
54788;DHT22;59598;48.112;16.280;2023-04-09T07:46:44;7.50;99.90
54788;DHT22;59598;48.112;16.280;2023-04-09T07:49:15;7.20;99.90
54788;DHT22;59598;48.112;16.280;2023-04-09T07:51:51;7.30;99.90
54788;DHT22;59598;48.112;16.280;2023-04-09T07:54:24;7.40;99.90
54788;DHT22;59598;48.112;16.280;2023-04-09T07:56:56;7.60;99.90
54788;DHT22;59598;48.112;16.280;2023-04-09T07:59:27;7.90;99.90
54788;DHT22;59598;48.112;16.280;2023-04-09T08:01:59;7.80;48.60
54788;DHT22;59598;48.112;16.280;2023-04-09T08:04:36;7.60;17.70
54788;DHT22;59598;48.112;16.280;2023-04-09T08:07:11;7.50;90.10
54788;DHT22;59598;48.112;16.280;2023-04-09T08:09:43;7.30;96.80
54788;DHT22;59598;48.112;16.280;2023-04-09T08:12:15;7.40;99.90
54788;DHT22;59598;48.112;16.280;2023-04-09T08:14:50;7.40;99.90
54788;DHT22;59598;48.112;16.280;2023-04-09T08:17:27;7.40;99.90
54788;DHT22;59598;48.112;16.280;2023-04-09T08:19:58;7.50;99.90
54788;DHT22;59598;48.112;16.280;2023-04-09T08:22:29;7.60;99.90
54788;DHT22;59598;48.112;16.280;2023-04-09T08:25:01;7.90;99.90
54788;DHT22;59598;48.112;16.280;2023-04-09T08:27:34;7.80;99.90
54788;DHT22;59598;48.112;16.280;2023-04-09T08:30:09;8.10;99.90
54788;DHT22;59598;48.112;16.280;2023-04-09T08:32:41;8.20;99.90
54788;DHT22;59598;48.112;16.280;2023-04-09T08:35:15;8.10;99.90
54788;DHT22;59598;48.112;16.280;2023-04-09T08:37:46;8.30;99.90
54788;DHT22;59598;48.112;16.280;2023-04-09T08:40:20;8.30;99.90
54788;DHT22;59598;48.112;16.280;2023-04-09T08:42:57;8.20;99.90
54788;DHT22;59598;48.112;16.280;2023-04-09T08:45:29;8.00;99.90
54788;DHT22;59598;48.112;16.280;2023-04-09T08:48:02;7.80;99.90
54788;DHT22;59598;48.112;16.280;2023-04-09T08:50:35;7.70;99.90
54788;DHT22;59598;48.112;16.280;2023-04-09T08:53:10;7.60;99.90
54788;DHT22;59598;48.112;16.280;2023-04-09T08:55:45;7.60;99.90
54788;DHT22;59598;48.112;16.280;2023-04-09T08:58:16;7.90;99.90
54788;DHT22;59598;48.112;16.280;2023-04-09T09:00:47;7.80;99.90
54788;DHT22;59598;48.112;16.280;2023-04-09T09:03:19;7.80;99.90
54788;DHT22;59598;48.112;16.280;2023-04-09T09:05:50;7.70;99.90
54788;DHT22;59598;48.112;16.280;2023-04-09T09:08:25;8.00;99.90
54788;DHT22;59598;48.112;16.280;2023-04-09T09:11:00;8.40;99.90
54788;DHT22;59598;48.112;16.280;2023-04-09T09:13:31;8.80;99.90
54788;DHT22;59598;48.112;16.280;2023-04-09T09:16:13;9.10;90.70
54788;DHT22;59598;48.112;16.280;2023-04-09T09:18:48;9.30;99.90
54788;DHT22;59598;48.112;16.280;2023-04-09T09:21:20;9.60;1.00
54788;DHT22;59598;48.112;16.280;2023-04-09T09:23:52;9.60;1.00
54788;DHT22;59598;48.112;16.280;2023-04-09T09:26:28;9.90;1.00
54788;DHT22;59598;48.112;16.280;2023-04-09T09:29:02;10.40;1.00
54788;DHT22;59598;48.112;16.280;2023-04-09T09:31:49;10.90;1.00
54788;DHT22;59598;48.112;16.280;2023-04-09T09:34:22;10.80;1.00
54788;DHT22;59598;48.112;16.280;2023-04-09T09:36:53;11.00;99.90
54788;DHT22;59598;48.112;16.280;2023-04-09T09:39:42;10.70;99.90
54788;DHT22;59598;48.112;16.280;2023-04-09T09:42:17;10.80;99.90
54788;DHT22;59598;48.112;16.280;2023-04-09T09:44:49;11.00;1.00
54788;DHT22;59598;48.112;16.280;2023-04-09T09:47:25;11.00;99.90
54788;DHT22;59598;48.112;16.280;2023-04-09T09:49:57;10.90;99.90
54788;DHT22;59598;48.112;16.280;2023-04-09T09:52:29;9.70;99.90
54788;DHT22;59598;48.112;16.280;2023-04-09T09:55:04;8.70;1.00
54788;DHT22;59598;48.112;16.280;2023-04-09T09:57:43;8.10;1.00
54788;DHT22;59598;48.112;16.280;2023-04-09T10:00:19;7.80;58.20
54788;DHT22;59598;48.112;16.280;2023-04-09T10:02:57;7.90;99.90
54788;DHT22;59598;48.112;16.280;2023-04-09T10:05:34;7.90;99.90
54788;DHT22;59598;48.112;16.280;2023-04-09T10:08:08;8.00;99.90
54788;DHT22;59598;48.112;16.280;2023-04-09T10:10:41;8.60;99.90
54788;DHT22;59598;48.112;16.280;2023-04-09T10:13:27;8.70;99.90
54788;DHT22;59598;48.112;16.280;2023-04-09T10:16:04;9.40;99.90
54788;DHT22;59598;48.112;16.280;2023-04-09T10:18:41;9.80;99.90
54788;DHT22;59598;48.112;16.280;2023-04-09T10:23:58;10.60;99.90
54788;DHT22;59598;48.112;16.280;2023-04-09T10:26:39;11.20;1.00
54788;DHT22;59598;48.112;16.280;2023-04-09T10:29:13;12.60;99.90
54788;DHT22;59598;48.112;16.280;2023-04-09T10:32:02;13.10;59.80
54788;DHT22;59598;48.112;16.280;2023-04-09T10:34:39;13.80;20.00
54788;DHT22;59598;48.112;16.280;2023-04-09T10:37:21;13.40;99.90
54788;DHT22;59598;48.112;16.280;2023-04-09T10:39:55;13.80;99.90
54788;DHT22;59598;48.112;16.280;2023-04-09T10:42:38;13.70;99.90
54788;DHT22;59598;48.112;16.280;2023-04-09T10:45:13;12.20;99.90
54788;DHT22;59598;48.112;16.280;2023-04-09T10:47:49;11.10;99.90
54788;DHT22;59598;48.112;16.280;2023-04-09T10:50:27;10.30;1.00
54788;DHT22;59598;48.112;16.280;2023-04-09T10:52:59;9.60;1.00
54788;DHT22;59598;48.112;16.280;2023-04-09T10:58:09;9.70;1.00
54788;DHT22;59598;48.112;16.280;2023-04-09T11:00:43;9.80;1.00
54788;DHT22;59598;48.112;16.280;2023-04-09T11:03:26;10.00;1.00
54788;DHT22;59598;48.112;16.280;2023-04-09T11:08:42;11.10;99.90
54788;DHT22;59598;48.112;16.280;2023-04-09T11:11:30;11.80;99.90
54788;DHT22;59598;48.112;16.280;2023-04-09T11:14:06;11.80;99.90
54788;DHT22;59598;48.112;16.280;2023-04-09T11:16:42;11.50;99.90
54788;DHT22;59598;48.112;16.280;2023-04-09T11:19:19;11.50;99.90
54788;DHT22;59598;48.112;16.280;2023-04-09T11:21:50;11.70;99.90
54788;DHT22;59598;48.112;16.280;2023-04-09T11:24:24;12.20;99.90
54788;DHT22;59598;48.112;16.280;2023-04-09T11:26:55;12.90;99.90
54788;DHT22;59598;48.112;16.280;2023-04-09T11:29:31;12.90;99.90
54788;DHT22;59598;48.112;16.280;2023-04-09T11:32:07;13.10;99.90
54788;DHT22;59598;48.112;16.280;2023-04-09T11:34:39;13.20;99.90
54788;DHT22;59598;48.112;16.280;2023-04-09T11:37:16;13.30;99.90
54788;DHT22;59598;48.112;16.280;2023-04-09T11:39:48;13.30;99.90
54788;DHT22;59598;48.112;16.280;2023-04-09T11:42:29;12.80;99.90
54788;DHT22;59598;48.112;16.280;2023-04-09T11:45:03;12.40;99.90
54788;DHT22;59598;48.112;16.280;2023-04-09T11:47:37;12.10;99.90
54788;DHT22;59598;48.112;16.280;2023-04-09T11:50:16;11.80;99.90
54788;DHT22;59598;48.112;16.280;2023-04-09T11:52:54;11.80;99.90
54788;DHT22;59598;48.112;16.280;2023-04-09T11:55:28;11.60;99.90
54788;DHT22;59598;48.112;16.280;2023-04-09T11:58:01;10.40;99.90
54788;DHT22;59598;48.112;16.280;2023-04-09T12:00:32;9.80;99.90
54788;DHT22;59598;48.112;16.280;2023-04-09T12:03:06;9.20;99.90
54788;DHT22;59598;48.112;16.280;2023-04-09T12:05:43;8.20;99.90
54788;DHT22;59598;48.112;16.280;2023-04-09T12:08:21;7.50;99.90
54788;DHT22;59598;48.112;16.280;2023-04-09T12:10:52;7.30;99.90
54788;DHT22;59598;48.112;16.280;2023-04-09T12:13:31;7.20;99.90
54788;DHT22;59598;48.112;16.280;2023-04-09T12:16:12;7.30;99.90
54788;DHT22;59598;48.112;16.280;2023-04-09T12:18:48;7.40;99.90
54788;DHT22;59598;48.112;16.280;2023-04-09T12:21:23;7.60;99.90
54788;DHT22;59598;48.112;16.280;2023-04-09T12:23:58;8.10;99.90
54788;DHT22;59598;48.112;16.280;2023-04-09T12:26:29;8.50;99.90
54788;DHT22;59598;48.112;16.280;2023-04-09T12:29:05;9.10;99.90
54788;DHT22;59598;48.112;16.280;2023-04-09T12:31:39;9.40;99.90
54788;DHT22;59598;48.112;16.280;2023-04-09T12:34:10;9.80;99.90
54788;DHT22;59598;48.112;16.280;2023-04-09T12:36:46;10.20;99.90
54788;DHT22;59598;48.112;16.280;2023-04-09T12:39:20;10.60;99.90
54788;DHT22;59598;48.112;16.280;2023-04-09T12:41:53;11.80;99.90
54788;DHT22;59598;48.112;16.280;2023-04-09T12:44:27;12.90;99.90
54788;DHT22;59598;48.112;16.280;2023-04-09T12:46:58;13.90;99.90
54788;DHT22;59598;48.112;16.280;2023-04-09T12:49:30;14.60;99.90
54788;DHT22;59598;48.112;16.280;2023-04-09T12:52:01;14.80;99.90
54788;DHT22;59598;48.112;16.280;2023-04-09T12:54:34;15.00;99.90
54788;DHT22;59598;48.112;16.280;2023-04-09T12:57:10;14.90;99.90
54788;DHT22;59598;48.112;16.280;2023-04-09T12:59:43;14.60;99.90
54788;DHT22;59598;48.112;16.280;2023-04-09T13:02:17;14.70;99.90
54788;DHT22;59598;48.112;16.280;2023-04-09T13:04:49;14.10;99.90
54788;DHT22;59598;48.112;16.280;2023-04-09T13:07:25;14.00;99.90
54788;DHT22;59598;48.112;16.280;2023-04-09T13:09:59;13.50;99.90
54788;DHT22;59598;48.112;16.280;2023-04-09T13:12:30;13.20;99.90
54788;DHT22;59598;48.112;16.280;2023-04-09T13:15:01;12.70;99.90
54788;DHT22;59598;48.112;16.280;2023-04-09T13:17:35;12.30;99.90
54788;DHT22;59598;48.112;16.280;2023-04-09T13:20:07;12.10;99.90
54788;DHT22;59598;48.112;16.280;2023-04-09T13:22:40;11.90;99.90
54788;DHT22;59598;48.112;16.280;2023-04-09T13:25:18;11.80;99.90
54788;DHT22;59598;48.112;16.280;2023-04-09T13:27:52;11.70;99.90
54788;DHT22;59598;48.112;16.280;2023-04-09T13:30:23;11.40;99.90
54788;DHT22;59598;48.112;16.280;2023-04-09T13:32:59;11.00;99.90
54788;DHT22;59598;48.112;16.280;2023-04-09T13:35:30;11.00;99.90
54788;DHT22;59598;48.112;16.280;2023-04-09T13:38:04;11.00;99.90
54788;DHT22;59598;48.112;16.280;2023-04-09T13:40:42;10.90;99.90
54788;DHT22;59598;48.112;16.280;2023-04-09T13:43:14;10.60;99.90
54788;DHT22;59598;48.112;16.280;2023-04-09T13:45:45;10.30;99.90
54788;DHT22;59598;48.112;16.280;2023-04-09T13:48:16;9.90;99.90
54788;DHT22;59598;48.112;16.280;2023-04-09T13:50:48;9.60;99.90
54788;DHT22;59598;48.112;16.280;2023-04-09T13:53:19;9.30;99.90
54788;DHT22;59598;48.112;16.280;2023-04-09T13:55:56;9.20;99.90
54788;DHT22;59598;48.112;16.280;2023-04-09T13:58:27;9.30;99.90
54788;DHT22;59598;48.112;16.280;2023-04-09T14:01:01;9.40;99.90
54788;DHT22;59598;48.112;16.280;2023-04-09T14:03:32;9.60;99.90
54788;DHT22;59598;48.112;16.280;2023-04-09T14:06:12;10.00;99.90
54788;DHT22;59598;48.112;16.280;2023-04-09T14:08:43;10.30;99.90
54788;DHT22;59598;48.112;16.280;2023-04-09T14:11:18;10.50;99.90
54788;DHT22;59598;48.112;16.280;2023-04-09T14:13:49;10.70;99.90
54788;DHT22;59598;48.112;16.280;2023-04-09T14:16:21;10.90;99.90
54788;DHT22;59598;48.112;16.280;2023-04-09T14:18:55;11.00;99.90
54788;DHT22;59598;48.112;16.280;2023-04-09T14:21:29;11.10;99.90
54788;DHT22;59598;48.112;16.280;2023-04-09T14:24:03;11.10;99.90
54788;DHT22;59598;48.112;16.280;2023-04-09T14:26:34;11.20;99.90
54788;DHT22;59598;48.112;16.280;2023-04-09T14:29:05;11.40;99.90
54788;DHT22;59598;48.112;16.280;2023-04-09T14:31:40;11.50;99.90
54788;DHT22;59598;48.112;16.280;2023-04-09T14:34:14;11.60;99.90
54788;DHT22;59598;48.112;16.280;2023-04-09T14:36:48;11.50;99.90
54788;DHT22;59598;48.112;16.280;2023-04-09T14:39:24;11.50;99.90
54788;DHT22;59598;48.112;16.280;2023-04-09T14:41:58;11.60;99.90
54788;DHT22;59598;48.112;16.280;2023-04-09T14:44:32;11.50;99.90
54788;DHT22;59598;48.112;16.280;2023-04-09T14:47:05;11.50;99.90
54788;DHT22;59598;48.112;16.280;2023-04-09T14:49:39;11.50;99.90
54788;DHT22;59598;48.112;16.280;2023-04-09T14:52:10;11.60;99.90
54788;DHT22;59598;48.112;16.280;2023-04-09T14:54:42;11.70;99.90
54788;DHT22;59598;48.112;16.280;2023-04-09T14:57:15;11.50;99.90
54788;DHT22;59598;48.112;16.280;2023-04-09T14:59:47;11.30;99.90
54788;DHT22;59598;48.112;16.280;2023-04-09T15:02:20;11.10;99.90
54788;DHT22;59598;48.112;16.280;2023-04-09T15:04:56;10.80;99.90
54788;DHT22;59598;48.112;16.280;2023-04-09T15:07:32;10.70;99.90
54788;DHT22;59598;48.112;16.280;2023-04-09T15:10:06;10.70;99.90
54788;DHT22;59598;48.112;16.280;2023-04-09T15:12:42;10.80;99.90
54788;DHT22;59598;48.112;16.280;2023-04-09T15:15:14;10.90;99.90
54788;DHT22;59598;48.112;16.280;2023-04-09T15:17:45;11.00;99.90
54788;DHT22;59598;48.112;16.280;2023-04-09T15:20:19;11.00;99.90
54788;DHT22;59598;48.112;16.280;2023-04-09T15:22:58;11.00;99.90
54788;DHT22;59598;48.112;16.280;2023-04-09T15:25:29;10.90;99.90
54788;DHT22;59598;48.112;16.280;2023-04-09T15:28:02;10.60;99.90
54788;DHT22;59598;48.112;16.280;2023-04-09T15:30:34;10.70;99.90
54788;DHT22;59598;48.112;16.280;2023-04-09T15:33:07;10.80;99.90
54788;DHT22;59598;48.112;16.280;2023-04-09T15:35:41;10.90;99.90
54788;DHT22;59598;48.112;16.280;2023-04-09T15:38:12;11.00;99.90
54788;DHT22;59598;48.112;16.280;2023-04-09T15:40:45;10.90;99.90
54788;DHT22;59598;48.112;16.280;2023-04-09T15:43:17;10.80;99.90
54788;DHT22;59598;48.112;16.280;2023-04-09T15:45:51;10.70;99.90
54788;DHT22;59598;48.112;16.280;2023-04-09T15:48:24;10.80;99.90
54788;DHT22;59598;48.112;16.280;2023-04-09T15:50:56;10.60;99.90
54788;DHT22;59598;48.112;16.280;2023-04-09T15:53:27;10.00;99.90
54788;DHT22;59598;48.112;16.280;2023-04-09T15:55:59;9.50;99.90
54788;DHT22;59598;48.112;16.280;2023-04-09T15:58:30;9.20;99.90
54788;DHT22;59598;48.112;16.280;2023-04-09T16:01:08;9.00;99.90
54788;DHT22;59598;48.112;16.280;2023-04-09T16:03:39;9.00;99.90
54788;DHT22;59598;48.112;16.280;2023-04-09T16:06:11;8.90;99.90
54788;DHT22;59598;48.112;16.280;2023-04-09T16:08:45;8.80;99.90
54788;DHT22;59598;48.112;16.280;2023-04-09T16:11:16;8.70;99.90
54788;DHT22;59598;48.112;16.280;2023-04-09T16:13:50;8.60;99.90
54788;DHT22;59598;48.112;16.280;2023-04-09T16:16:22;8.60;99.90
54788;DHT22;59598;48.112;16.280;2023-04-09T16:18:53;8.60;99.90
54788;DHT22;59598;48.112;16.280;2023-04-09T16:21:24;8.50;99.90
54788;DHT22;59598;48.112;16.280;2023-04-09T16:23:59;8.50;99.90
54788;DHT22;59598;48.112;16.280;2023-04-09T16:26:33;8.50;99.90
54788;DHT22;59598;48.112;16.280;2023-04-09T16:29:05;8.40;99.90
54788;DHT22;59598;48.112;16.280;2023-04-09T16:31:37;8.20;99.90
54788;DHT22;59598;48.112;16.280;2023-04-09T16:34:14;8.10;99.90